createdAt,value
2023-03-14T00:00:37.576Z,5.13
2023-03-14T00:03:04.738Z,4.43
2023-03-14T00:05:31.894Z,5.20
2023-03-14T00:07:59.126Z,4.90
2023-03-14T00:10:26.264Z,5.03
2023-03-14T00:12:53.412Z,4.20
2023-03-14T00:15:20.565Z,4.77
2023-03-14T00:17:47.682Z,5.17
2023-03-14T00:20:14.879Z,4.77
2023-03-14T00:22:42.928Z,4.43
2023-03-14T00:25:10.797Z,4.10
2023-03-14T00:27:37.971Z,3.70
2023-03-14T00:30:06.015Z,4.23
2023-03-14T00:32:33.169Z,4.00
2023-03-14T00:35:01.780Z,3.27
2023-03-14T00:37:29.154Z,4.10
2023-03-14T00:39:56.341Z,4.47
2023-03-14T00:42:23.490Z,4.07
2023-03-14T00:44:50.622Z,3.83
2023-03-14T00:47:17.775Z,3.70
2023-03-14T00:49:44.890Z,3.83
2023-03-14T00:52:12.020Z,4.40
2023-03-14T00:54:39.138Z,3.80
2023-03-14T00:57:06.274Z,3.70
2023-03-14T00:59:33.443Z,3.90
2023-03-14T01:02:00.651Z,3.90
2023-03-14T01:04:27.862Z,4.13
2023-03-14T01:06:54.983Z,3.23
2023-03-14T01:09:22.125Z,4.03
2023-03-14T01:11:49.890Z,4.00
2023-03-14T01:14:17.153Z,3.80
2023-03-14T01:16:44.321Z,4.10
2023-03-14T01:19:11.533Z,4.30
2023-03-14T01:21:38.968Z,3.97
2023-03-14T01:24:06.869Z,3.80
2023-03-14T01:26:34.731Z,3.47
2023-03-14T01:29:01.938Z,3.20
2023-03-14T01:31:29.414Z,3.13
2023-03-14T01:33:56.764Z,3.37
2023-03-14T01:36:24.032Z,3.70
2023-03-14T01:38:51.153Z,3.87
2023-03-14T01:41:19.777Z,3.60
2023-03-14T01:43:47.612Z,3.43
2023-03-14T01:46:35.048Z,3.47
2023-03-14T01:49:05.195Z,2.70
2023-03-14T01:51:35.231Z,3.10
2023-03-14T01:54:21.230Z,3.70
2023-03-14T01:56:51.861Z,3.13
2023-03-14T01:59:20.088Z,3.40
2023-03-14T02:01:48.768Z,2.60
2023-03-14T02:04:17.336Z,3.37
2023-03-14T02:06:48.942Z,3.13
2023-03-14T02:09:16.166Z,2.90
2023-03-14T02:11:43.597Z,2.87
2023-03-14T02:14:15.867Z,3.47
2023-03-14T02:16:43.444Z,3.53
2023-03-14T02:19:11.870Z,3.00
2023-03-14T02:21:48.779Z,3.33
2023-03-14T02:24:28.940Z,3.63
2023-03-14T02:27:15.729Z,3.10
2023-03-14T02:29:47.442Z,3.17
2023-03-14T02:32:15.648Z,2.57
2023-03-14T02:34:44.880Z,2.53
2023-03-14T02:37:12.299Z,3.10
2023-03-14T02:39:45.514Z,2.80
2023-03-14T02:42:13.310Z,3.00
2023-03-14T02:44:54.642Z,3.43
2023-03-14T02:47:28.425Z,2.80
2023-03-14T02:49:58.266Z,2.70
2023-03-14T02:52:25.398Z,2.90
2023-03-14T02:54:52.529Z,2.83
2023-03-14T02:57:19.644Z,2.70
2023-03-14T02:59:46.757Z,3.50
2023-03-14T03:02:13.916Z,2.27
2023-03-14T03:04:41.053Z,2.70
2023-03-14T03:07:08.251Z,2.70
2023-03-14T03:09:35.497Z,2.70
2023-03-14T03:12:02.768Z,2.87
2023-03-14T03:14:29.991Z,2.50
2023-03-14T03:16:57.157Z,2.43
2023-03-14T03:19:24.369Z,2.60
2023-03-14T03:21:51.496Z,2.63
2023-03-14T03:24:18.631Z,2.60
2023-03-14T03:26:45.809Z,2.90
2023-03-14T03:29:13.007Z,2.77
2023-03-14T03:31:40.638Z,2.27
2023-03-14T03:34:07.984Z,3.60
2023-03-14T03:36:35.566Z,2.77
2023-03-14T03:39:02.923Z,2.73
2023-03-14T03:41:30.111Z,3.00
2023-03-14T03:43:57.435Z,2.53
2023-03-14T03:46:24.881Z,3.30
2023-03-14T03:49:01.590Z,2.57
2023-03-14T03:51:28.988Z,2.67
2023-03-14T03:53:57.642Z,2.73
2023-03-14T03:56:24.762Z,2.60
2023-03-14T03:58:51.899Z,2.47
2023-03-14T04:01:19.067Z,2.50
2023-03-14T04:03:46.419Z,2.87
2023-03-14T04:06:14.854Z,2.70
2023-03-14T04:08:42.371Z,2.50
2023-03-14T04:11:09.493Z,2.30
2023-03-14T04:13:36.769Z,2.40
2023-03-14T04:16:04.006Z,2.50
2023-03-14T04:18:31.388Z,2.40
2023-03-14T04:20:59.430Z,2.33
2023-03-14T04:23:26.629Z,2.27
2023-03-14T04:25:54.504Z,2.10
2023-03-14T04:28:21.668Z,3.00
2023-03-14T04:30:48.830Z,2.10
2023-03-14T04:33:18.327Z,2.50
2023-03-14T04:35:46.074Z,2.57
2023-03-14T04:38:14.021Z,2.80
2023-03-14T04:40:41.852Z,2.60
2023-03-14T04:43:10.685Z,2.83
2023-03-14T04:45:37.957Z,2.83
2023-03-14T04:48:05.193Z,2.40
2023-03-14T04:50:32.361Z,2.50
2023-03-14T04:52:59.513Z,2.63
2023-03-14T04:55:26.790Z,2.57
2023-03-14T04:57:53.900Z,2.90
2023-03-14T05:00:21.124Z,2.97
2023-03-14T05:02:48.304Z,2.47
2023-03-14T05:05:15.463Z,3.37
2023-03-14T05:07:42.576Z,3.00
2023-03-14T05:10:10.686Z,3.00
2023-03-14T05:12:37.904Z,2.80
2023-03-14T05:15:05.484Z,2.83
2023-03-14T05:17:34.090Z,2.93
2023-03-14T05:20:01.269Z,3.00
2023-03-14T05:22:28.420Z,3.17
2023-03-14T05:24:57.722Z,3.47
2023-03-14T05:27:24.907Z,4.27
2023-03-14T05:29:52.123Z,3.93
2023-03-14T05:32:19.390Z,3.00
2023-03-14T05:34:46.847Z,3.43
2023-03-14T05:37:13.992Z,4.13
2023-03-14T05:39:41.140Z,3.60
2023-03-14T05:42:08.293Z,3.47
2023-03-14T05:44:35.488Z,3.43
2023-03-14T05:47:02.603Z,3.20
2023-03-14T05:49:29.753Z,3.30
2023-03-14T05:51:56.929Z,3.20
2023-03-14T05:54:24.093Z,3.30
2023-03-14T05:56:51.200Z,3.20
2023-03-14T05:59:18.324Z,3.67
2023-03-14T06:01:45.500Z,3.40
2023-03-14T06:04:12.647Z,3.70
2023-03-14T06:06:39.928Z,3.33
2023-03-14T06:09:07.212Z,4.00
2023-03-14T06:11:34.371Z,3.23
2023-03-14T06:14:01.515Z,3.40
2023-03-14T06:16:28.692Z,3.63
2023-03-14T06:18:55.972Z,3.87
2023-03-14T06:21:23.152Z,4.00
2023-03-14T06:23:50.281Z,3.70
2023-03-14T06:26:17.414Z,3.67
2023-03-14T06:28:44.604Z,3.43
2023-03-14T06:31:11.841Z,3.67
2023-03-14T06:33:39.191Z,4.40
2023-03-14T06:36:06.573Z,3.53
2023-03-14T06:38:33.709Z,4.20
2023-03-14T06:41:07.838Z,4.20
2023-03-14T06:43:35.065Z,3.80
2023-03-14T06:46:02.250Z,3.83
2023-03-14T06:48:29.405Z,3.60
2023-03-14T06:50:56.542Z,4.10
2023-03-14T06:53:23.784Z,4.30
2023-03-14T06:55:50.974Z,4.10
2023-03-14T06:58:18.188Z,3.70
2023-03-14T07:00:45.642Z,4.20
2023-03-14T07:03:14.741Z,4.30
2023-03-14T07:05:42.251Z,3.53
2023-03-14T07:08:09.964Z,3.10
2023-03-14T07:10:37.293Z,4.20
2023-03-14T07:13:04.538Z,3.30
2023-03-14T07:15:31.819Z,3.03
2023-03-14T07:17:59.015Z,2.80
2023-03-14T07:20:26.247Z,3.00
2023-03-14T07:22:53.469Z,2.93
2023-03-14T07:25:20.619Z,2.53
2023-03-14T07:27:49.033Z,2.53
2023-03-14T07:30:16.400Z,2.30
2023-03-14T07:32:43.862Z,2.40
2023-03-14T07:35:11.080Z,2.30
2023-03-14T07:37:38.249Z,2.47
2023-03-14T07:40:08.980Z,2.50
2023-03-14T07:42:36.190Z,2.83
2023-03-14T07:45:04.090Z,2.73
2023-03-14T07:47:31.328Z,2.80
2023-03-14T07:49:58.566Z,2.70
2023-03-14T07:52:25.775Z,2.50
2023-03-14T07:54:53.068Z,2.70
2023-03-14T07:57:20.204Z,3.23
2023-03-14T07:59:47.370Z,2.53
2023-03-14T08:02:14.757Z,2.83
2023-03-14T08:04:42.012Z,2.80
2023-03-14T08:07:09.183Z,2.80
2023-03-14T08:09:38.255Z,2.90
2023-03-14T08:12:05.694Z,2.67
2023-03-14T08:14:32.979Z,3.20
2023-03-14T08:17:00.167Z,2.80
2023-03-14T08:19:27.397Z,3.13
2023-03-14T08:21:55.002Z,2.80
2023-03-14T08:24:22.133Z,2.67
2023-03-14T08:26:49.278Z,2.83
2023-03-14T08:29:16.461Z,2.90
2023-03-14T08:31:43.701Z,2.97
2023-03-14T08:34:10.850Z,2.83
2023-03-14T08:36:38.150Z,2.60
2023-03-14T08:39:08.171Z,2.43
2023-03-14T08:41:41.046Z,2.90
2023-03-14T08:44:12.587Z,2.87
2023-03-14T08:46:40.069Z,2.73
2023-03-14T08:49:07.303Z,2.70
2023-03-14T08:51:34.730Z,2.60
2023-03-14T08:54:01.900Z,2.13
2023-03-14T08:56:29.036Z,2.27
2023-03-14T08:58:56.232Z,2.53
2023-03-14T09:01:25.289Z,2.60
2023-03-14T09:03:52.617Z,2.13
2023-03-14T09:06:19.792Z,2.37
2023-03-14T09:08:47.110Z,2.20
2023-03-14T09:11:14.660Z,2.23
2023-03-14T09:13:42.518Z,2.17
2023-03-14T09:16:10.127Z,1.90
2023-03-14T09:18:37.579Z,1.53
2023-03-14T09:21:04.931Z,2.27
2023-03-14T09:23:32.094Z,1.93
2023-03-14T09:26:00.122Z,2.07
2023-03-14T09:28:27.694Z,2.00
2023-03-14T09:30:55.581Z,2.00
2023-03-14T09:33:22.856Z,2.00
2023-03-14T09:35:50.021Z,1.43
2023-03-14T09:38:17.475Z,2.17
2023-03-14T09:40:44.739Z,1.73
2023-03-14T09:43:13.485Z,1.60
2023-03-14T09:45:41.653Z,1.70
2023-03-14T09:48:29.130Z,2.40
2023-03-14T09:50:57.121Z,1.70
2023-03-14T09:53:53.456Z,1.63
2023-03-14T09:56:33.356Z,2.50
2023-03-14T09:59:01.898Z,2.00
2023-03-14T10:01:32.367Z,2.07
2023-03-14T10:04:06.220Z,1.70
2023-03-14T10:06:33.534Z,2.00
2023-03-14T10:09:00.707Z,1.70
2023-03-14T10:11:27.857Z,1.50
2023-03-14T10:14:14.335Z,1.97
2023-03-14T10:16:46.288Z,2.10
2023-03-14T10:19:15.195Z,1.70
2023-03-14T10:21:44.426Z,2.00
2023-03-14T10:24:19.849Z,1.80
2023-03-14T10:26:49.809Z,1.70
2023-03-14T10:29:17.255Z,1.63
2023-03-14T10:31:48.975Z,1.67
2023-03-14T10:34:23.733Z,1.60
2023-03-14T10:36:55.001Z,1.83
2023-03-14T10:39:30.646Z,1.60
2023-03-14T10:42:13.433Z,1.93
2023-03-14T10:44:40.871Z,1.83
2023-03-14T10:47:08.248Z,1.80
2023-03-14T10:49:36.851Z,1.80
2023-03-14T10:52:31.353Z,1.50
2023-03-14T10:55:04.999Z,1.60
2023-03-14T10:57:32.163Z,1.70
2023-03-14T10:59:59.325Z,1.77
2023-03-14T11:02:44.962Z,1.57
2023-03-14T11:05:31.402Z,1.70
2023-03-14T11:08:18.797Z,1.40
2023-03-14T11:10:47.493Z,1.70
2023-03-14T11:13:21.738Z,1.47
2023-03-14T11:16:10.930Z,1.83
2023-03-14T11:18:50.422Z,1.77
2023-03-14T11:21:31.738Z,1.60
2023-03-14T11:24:14.184Z,1.43
2023-03-14T11:26:50.364Z,1.50
2023-03-14T11:29:23.398Z,1.40
2023-03-14T11:31:50.573Z,2.30
2023-03-14T11:34:17.716Z,1.70
2023-03-14T11:36:57.991Z,1.40
2023-03-14T11:39:26.533Z,1.60
2023-03-14T11:41:59.378Z,1.80
2023-03-14T11:44:36.260Z,1.70
2023-03-14T11:47:09.076Z,1.53
2023-03-14T11:49:39.959Z,1.80
2023-03-14T11:52:17.037Z,1.57
2023-03-14T11:54:53.144Z,1.70
2023-03-14T11:57:21.393Z,1.60
2023-03-14T11:59:52.299Z,1.73
2023-03-14T12:02:24.321Z,1.40
2023-03-14T12:04:51.457Z,1.40
2023-03-14T12:07:21.004Z,1.53
2023-03-14T12:09:50.585Z,1.60
2023-03-14T12:12:23.313Z,1.20
2023-03-14T12:14:55.468Z,1.33
2023-03-14T12:17:24.368Z,1.50
2023-03-14T12:20:04.873Z,1.27
2023-03-14T12:22:33.017Z,1.40
2023-03-14T12:25:03.208Z,1.53
2023-03-14T12:27:42.613Z,1.60
2023-03-14T12:30:18.048Z,1.17
2023-03-14T12:33:05.224Z,1.47
2023-03-14T12:35:39.104Z,1.20
2023-03-14T12:38:09.272Z,1.43
2023-03-14T12:40:41.991Z,1.37
2023-03-14T12:43:27.507Z,1.53
2023-03-14T12:46:13.557Z,1.17
2023-03-14T12:48:41.251Z,1.53
2023-03-14T12:51:21.598Z,1.40
2023-03-14T12:53:57.286Z,1.57
2023-03-14T12:56:26.549Z,1.27
2023-03-14T12:59:12.517Z,1.50
2023-03-14T13:01:46.855Z,1.33
2023-03-14T13:04:14.280Z,1.07
2023-03-14T13:07:13.852Z,1.47
2023-03-14T13:09:59.684Z,1.40
2023-03-14T13:12:33.267Z,1.13
2023-03-14T13:15:01.911Z,1.40
2023-03-14T13:17:37.083Z,1.37
2023-03-14T13:20:26.442Z,1.27
2023-03-14T13:22:53.618Z,1.40
2023-03-14T13:25:22.117Z,1.30
2023-03-14T13:27:49.724Z,1.40
2023-03-14T13:30:22.785Z,1.50
2023-03-14T13:32:50.636Z,1.30
2023-03-14T13:35:17.942Z,1.33
2023-03-14T13:37:45.147Z,1.40
2023-03-14T13:40:30.884Z,1.30
2023-03-14T13:43:03.297Z,1.00
2023-03-14T13:45:30.484Z,1.00
2023-03-14T13:47:57.725Z,1.10
2023-03-14T13:50:24.844Z,1.00
2023-03-14T13:52:56.944Z,1.00
2023-03-14T13:55:24.253Z,1.23
2023-03-14T13:57:55.542Z,1.23
2023-03-14T14:00:28.200Z,1.07
2023-03-14T14:02:56.561Z,1.10
2023-03-14T14:05:24.394Z,0.90
2023-03-14T14:07:53.058Z,1.13
2023-03-14T14:10:21.084Z,1.07
2023-03-14T14:13:07.702Z,1.07
2023-03-14T14:15:38.697Z,1.20
2023-03-14T14:18:07.427Z,1.20
2023-03-14T14:20:36.972Z,0.90
2023-03-14T14:23:05.750Z,1.10
2023-03-14T14:25:33.355Z,0.97
2023-03-14T14:28:01.652Z,1.10
2023-03-14T14:30:30.541Z,1.03
2023-03-14T14:33:13.210Z,2.33
2023-03-14T14:35:40.448Z,1.00
2023-03-14T14:38:14.045Z,1.13
2023-03-14T14:40:46.502Z,1.27
2023-03-14T14:43:17.404Z,1.43
2023-03-14T14:45:44.649Z,1.30
2023-03-14T14:48:13.212Z,1.20
2023-03-14T14:50:41.321Z,1.10
2023-03-14T14:53:20.866Z,1.20
2023-03-14T14:55:50.948Z,1.30
2023-03-14T14:58:31.436Z,1.10
2023-03-14T15:01:00.605Z,1.50
2023-03-14T15:03:29.831Z,1.40
2023-03-14T15:05:57.226Z,1.10
2023-03-14T15:08:26.020Z,1.10
2023-03-14T15:10:53.169Z,1.20
2023-03-14T15:13:20.400Z,1.33
2023-03-14T15:15:48.271Z,1.20
2023-03-14T15:18:17.308Z,1.20
2023-03-14T15:20:45.351Z,1.00
2023-03-14T15:23:16.754Z,1.00
2023-03-14T15:25:55.153Z,1.10
2023-03-14T15:28:24.509Z,1.30
2023-03-14T15:30:52.779Z,1.20
2023-03-14T15:33:20.418Z,1.17
2023-03-14T15:35:48.389Z,1.13
2023-03-14T15:38:16.953Z,0.87
2023-03-14T15:40:44.111Z,1.20
2023-03-14T15:43:11.264Z,1.20
2023-03-14T15:45:38.594Z,1.00
2023-03-14T15:48:06.017Z,1.47
2023-03-14T15:50:33.157Z,1.30
2023-03-14T15:53:00.324Z,1.30
2023-03-14T15:55:27.496Z,1.00
2023-03-14T15:57:54.903Z,1.00
2023-03-14T16:00:22.716Z,1.30
2023-03-14T16:02:50.270Z,1.10
2023-03-14T16:05:20.001Z,1.43
2023-03-14T16:07:47.678Z,1.20
2023-03-14T16:10:15.225Z,1.00
2023-03-14T16:12:42.724Z,1.23
2023-03-14T16:15:10.496Z,1.20
2023-03-14T16:17:38.750Z,1.10
2023-03-14T16:20:06.445Z,1.10
2023-03-14T16:22:35.844Z,1.20
2023-03-14T16:25:07.029Z,1.50
2023-03-14T16:27:34.250Z,1.13
2023-03-14T16:30:01.541Z,1.00
2023-03-14T16:32:29.503Z,1.20
2023-03-14T16:34:56.930Z,1.40
2023-03-14T16:37:24.862Z,1.20
2023-03-14T16:40:11.024Z,1.20
2023-03-14T16:42:54.952Z,1.20
2023-03-14T16:45:26.393Z,1.40
2023-03-14T16:47:53.544Z,1.30
2023-03-14T16:50:20.680Z,1.60
2023-03-14T16:52:49.691Z,0.90
2023-03-14T16:55:17.029Z,1.30
2023-03-14T16:57:44.151Z,1.17
2023-03-14T17:00:12.183Z,1.13
2023-03-14T17:02:39.741Z,1.10
2023-03-14T17:05:07.067Z,1.27
2023-03-14T17:07:34.173Z,0.90
2023-03-14T17:10:01.330Z,1.10
2023-03-14T17:12:28.501Z,1.10
2023-03-14T17:14:57.768Z,1.10
2023-03-14T17:17:24.955Z,0.90
2023-03-14T17:19:52.571Z,0.90
2023-03-14T17:22:25.911Z,1.00
2023-03-14T17:24:54.552Z,1.00
2023-03-14T17:27:21.714Z,1.00
2023-03-14T17:29:49.183Z,0.80
2023-03-14T17:32:17.103Z,1.10
2023-03-14T17:34:44.285Z,0.83
2023-03-14T17:37:11.468Z,1.00
2023-03-14T17:39:39.444Z,1.10
2023-03-14T17:42:07.411Z,0.90
2023-03-14T17:44:34.824Z,1.23
2023-03-14T17:47:02.318Z,0.90
2023-03-14T17:49:29.566Z,1.20
2023-03-14T17:51:56.723Z,1.33
2023-03-14T17:54:23.883Z,1.10
2023-03-14T17:56:51.040Z,0.80
2023-03-14T17:59:18.184Z,1.23
2023-03-14T18:01:45.655Z,0.90
2023-03-14T18:04:13.906Z,1.03
2023-03-14T18:06:44.609Z,1.20
2023-03-14T18:09:11.899Z,0.90
2023-03-14T18:11:39.043Z,0.97
2023-03-14T18:14:07.874Z,0.70
2023-03-14T18:16:35.922Z,3.37
2023-03-14T18:19:03.112Z,2.40
2023-03-14T18:21:31.024Z,1.10
2023-03-14T18:23:58.316Z,0.97
2023-03-14T18:26:27.271Z,1.03
2023-03-14T18:28:55.215Z,0.90
2023-03-14T18:31:25.100Z,1.13
2023-03-14T18:33:55.242Z,0.93
2023-03-14T18:36:22.889Z,1.50
2023-03-14T18:38:53.629Z,0.80
2023-03-14T18:41:20.805Z,1.07
2023-03-14T18:43:47.996Z,1.27
2023-03-14T18:46:16.090Z,1.00
2023-03-14T18:48:43.277Z,0.97
2023-03-14T18:51:15.246Z,1.13
2023-03-14T18:53:43.086Z,1.10
2023-03-14T18:56:13.756Z,1.20
2023-03-14T18:58:41.504Z,1.00
2023-03-14T19:01:10.121Z,3.07
2023-03-14T19:03:37.858Z,2.20
2023-03-14T19:06:06.487Z,1.17
2023-03-14T19:08:34.802Z,1.00
2023-03-14T19:11:03.856Z,0.97
2023-03-14T19:13:31.593Z,1.00
2023-03-14T19:15:59.370Z,0.70
2023-03-14T19:18:26.586Z,1.10
2023-03-14T19:21:03.821Z,1.10
2023-03-14T19:23:31.806Z,1.10
2023-03-14T19:25:58.994Z,1.03
2023-03-14T19:28:26.758Z,0.97
2023-03-14T19:30:53.921Z,1.20
2023-03-14T19:33:21.308Z,0.90
2023-03-14T19:35:48.630Z,1.20
2023-03-14T19:38:16.014Z,1.00
2023-03-14T19:40:45.036Z,1.20
2023-03-14T19:43:12.196Z,1.50
2023-03-14T19:45:39.789Z,1.00
2023-03-14T19:48:07.460Z,0.90
2023-03-14T19:50:35.354Z,0.80
2023-03-14T19:53:04.582Z,1.53
2023-03-14T19:55:34.656Z,1.10
2023-03-14T19:58:01.889Z,1.10
2023-03-14T20:00:29.048Z,1.77
2023-03-14T20:02:56.447Z,1.13
2023-03-14T20:05:24.165Z,1.17
2023-03-14T20:07:51.718Z,1.10
2023-03-14T20:10:22.639Z,1.33
2023-03-14T20:12:50.857Z,1.37
2023-03-14T20:15:19.565Z,1.20
2023-03-14T20:17:51.497Z,1.13
2023-03-14T20:20:19.079Z,1.17
2023-03-14T20:22:46.285Z,1.00
2023-03-14T20:25:14.691Z,1.47
2023-03-14T20:27:42.108Z,1.27
2023-03-14T20:30:12.848Z,1.17
2023-03-14T20:32:43.112Z,1.20
2023-03-14T20:35:11.540Z,1.17
2023-03-14T20:37:39.277Z,1.10
2023-03-14T20:40:13.951Z,1.17
2023-03-14T20:42:41.136Z,1.30
2023-03-14T20:45:08.598Z,1.20
2023-03-14T20:47:36.178Z,1.20
2023-03-14T20:50:03.838Z,1.60
2023-03-14T20:52:31.314Z,1.30
2023-03-14T20:54:59.746Z,1.50
2023-03-14T20:57:27.365Z,1.30
2023-03-14T20:59:54.660Z,1.43
2023-03-14T21:05:06.888Z,1.40
2023-03-14T21:07:41.110Z,1.43
2023-03-14T21:10:12.035Z,1.30
2023-03-14T21:12:39.384Z,1.33
2023-03-14T21:15:07.298Z,1.20
2023-03-14T21:17:34.437Z,1.30
2023-03-14T21:20:01.843Z,1.50
2023-03-14T21:22:29.549Z,1.33
2023-03-14T21:24:57.002Z,1.23
2023-03-14T21:27:24.235Z,1.10
2023-03-14T21:29:51.389Z,1.30
2023-03-14T21:32:18.891Z,1.40
2023-03-14T21:34:48.732Z,1.70
2023-03-14T21:37:16.527Z,1.17
2023-03-14T21:39:43.712Z,1.60
2023-03-14T21:42:10.866Z,1.23
2023-03-14T21:44:38.191Z,1.33
2023-03-14T21:47:06.629Z,1.53
2023-03-14T21:49:38.052Z,1.67
2023-03-14T21:52:06.205Z,1.40
2023-03-14T21:54:35.648Z,1.50
2023-03-14T21:57:03.946Z,1.60
2023-03-14T21:59:33.894Z,1.40
2023-03-14T22:02:02.759Z,1.40
2023-03-14T22:04:34.562Z,1.63
2023-03-14T22:07:02.816Z,1.70
2023-03-14T22:09:30.416Z,1.67
2023-03-14T22:11:57.595Z,1.40
2023-03-14T22:14:25.034Z,1.40
2023-03-14T22:16:55.349Z,1.50
2023-03-14T22:19:22.921Z,1.40
2023-03-14T22:21:50.150Z,1.20
2023-03-14T22:24:17.548Z,1.40
2023-03-14T22:26:44.944Z,1.37
2023-03-14T22:29:12.113Z,1.90
2023-03-14T22:31:39.361Z,1.50
2023-03-14T22:34:06.547Z,1.47
2023-03-14T22:36:33.713Z,1.43
2023-03-14T22:39:03.721Z,1.40
2023-03-14T22:41:30.842Z,1.50
2023-03-14T22:43:58.027Z,1.50
2023-03-14T22:46:25.179Z,1.57
2023-03-14T22:48:52.317Z,1.40
2023-03-14T22:51:19.696Z,1.50
2023-03-14T22:53:46.839Z,1.60
2023-03-14T22:56:14.034Z,1.70
2023-03-14T22:58:41.150Z,1.70
2023-03-14T23:01:08.360Z,1.53
2023-03-14T23:03:35.492Z,1.43
2023-03-14T23:06:02.623Z,1.70
2023-03-14T23:08:33.041Z,1.73
2023-03-14T23:11:03.826Z,1.60
2023-03-14T23:13:31.423Z,1.87
2023-03-14T23:15:58.992Z,1.90
2023-03-14T23:18:27.561Z,1.67
2023-03-14T23:21:15.022Z,1.60
2023-03-14T23:23:42.661Z,1.80
2023-03-14T23:26:11.331Z,1.70
2023-03-14T23:28:38.576Z,1.63
2023-03-14T23:31:08.951Z,2.00
2023-03-14T23:33:37.383Z,1.73
2023-03-14T23:36:05.310Z,1.77
2023-03-14T23:38:32.955Z,1.83
2023-03-14T23:41:00.873Z,1.70
2023-03-14T23:43:28.521Z,1.87
2023-03-14T23:45:57.041Z,1.30
2023-03-14T23:48:26.614Z,1.63
2023-03-14T23:50:56.614Z,1.50
2023-03-14T23:53:28.050Z,1.97
2023-03-14T23:55:55.612Z,1.70
2023-03-14T23:58:23.360Z,1.77
